Coats - southern half: Past 24 Hour Conditions

 

Gjoa Haven Airport

10:00 PM MST 22 December 2014
Disclaimer

This table is a summary of hourly weather conditions for the past 24 hours.
Please note that these observations might not always be representative of weather conditions over their associated marine area.

Date / Time
(MST)
Wind(knots) Conditions Visibility(km) Pressure(kPa) Air tempC) Relative humidity(%) Dew pointC) Wind Chill
22 December 2014
22:00 NNE 8 Clear 16 102.7 -36 70 -39 -48
21:00 NNW 8 Clear 16 102.6 -36 70 -40 -49
20:00 NNW 7 Mainly Clear 16 102.6 -36 70 -40 -48
19:00 NNW 11 Clear 16 102.6 -36 70 -40 -51
18:00 NNW 9 Clear 24 102.6 -36 70 -40 -49
17:00 NNW 9 Mainly Clear 24 102.6 -36 71 -39 -49
16:00 NW 7 Clear 24 102.6 -36 70 -39 -47
15:00 WNW 6 Clear 24 102.5 -35 70 -39 -46
14:00 N 6 Clear 24 102.5 -34 72 -38 -44
13:00 N 10 Partly Cloudy 16 102.4 -34 71 -38 -48
12:00 N 10 Partly Cloudy 16 102.4 -34 72 -38 -48
11:00 NNW 10 Partly Cloudy 16 102.4 -33 73 -37 -47
10:00 NNW 11 Mist 8 102.3 -32 74 -35 -45
9:00 NNW 12 Partly Cloudy 8 102.3 -31 75 -34 -45
8:00 NNW 13 Clear 24 102.3 -33 74 -36 -47
7:00 N 11 Clear 24 102.2 -33 73 -36 -47
6:00 NNW 14 Clear 16 102.2 -33 73 -36 -48
5:00 N 9 Clear 16 102.2 -33 73 -36 -45
4:00 N 11 Clear 16 102.1 -32 73 -36 -46
3:00 NNE 10 Clear 16 102.1 -32 74 -35 -45
2:00 NNE 11 Clear 11 102.1 -32 73 -35 -46
1:00 NNE 14 Clear 15 102.0 -30 77 -33 -45
0:00 NNE 15 Clear 16 101.9 -30 76 -33 -45
21 December 2014
23:00 NNE 11 Clear 16 101.9 -30 80 -32 -43
22:00 NNE 13 Clear 16 101.9 -29 77 -32 -43
Map of Arctic - Eastern Arctic marine weather areas Baker Lake Airport Chesterfield Inlet Airport Coral Harbour Airport Gjoa Haven Airport Kugaaruk Airport Rankin Inlet Airport Shepherd Bay Airport Whale Cove Airport Arctic Bay Brevoort Island Qikiqtarjuaq Airport Cape Dorset Airport Cape Dyer Cape Hooper Clyde Airport Grise Fiord Airport Hall Beach Airport Igloolik Airport Iqaluit Airport Longstaff Bluff Pangnirtung Airport Pond Inlet Airport Repulse Bay Airport Resolute Airport Resolution Island Rowley Island Airport Taloyoak Airport Wager Bay Akulivik Airport Ivujivik Airport Puvirnituq Airport Kangiqsujuaq Airport Kangirsuk Airport Quaqtaq Airport Tasiujaq Airport Cape Kakkiviak Cape Kiglapait Nain Airport Saglek Cape Mercy Kimmirut Airport Aupaluk Airport Salluit Airport Kangiqsualujjuaq Airport Cape Liverpool Fort Ross
Legend:
buoy Buoy
land station Land Station

Arctic - Eastern Arctic Area

Another Region

What we are doing

Date modified: